createdAt,value
2022-10-07T00:01:12.515Z,1.70
2022-10-07T00:03:42.843Z,2.30
2022-10-07T00:06:14.423Z,1.93
2022-10-07T00:08:45.052Z,1.73
2022-10-07T00:11:16.139Z,1.73
2022-10-07T00:13:47.341Z,2.07
2022-10-07T00:16:18.345Z,1.70
2022-10-07T00:18:46.558Z,1.63
2022-10-07T00:21:16.681Z,1.80
2022-10-07T00:23:45.913Z,1.97
2022-10-07T00:26:17.923Z,2.17
2022-10-07T00:28:47.743Z,1.97
2022-10-07T00:31:17.922Z,1.90
2022-10-07T00:33:46.949Z,2.00
2022-10-07T00:36:17.039Z,1.87
2022-10-07T00:38:45.122Z,2.03
2022-10-07T00:41:20.639Z,1.90
2022-10-07T00:43:50.304Z,2.20
2022-10-07T00:46:26.756Z,1.77
2022-10-07T00:48:55.377Z,1.50
2022-10-07T00:51:23.531Z,2.00
2022-10-07T00:53:53.073Z,1.90
2022-10-07T00:56:21.103Z,2.03
2022-10-07T00:58:52.253Z,1.77
2022-10-07T01:01:21.098Z,2.23
2022-10-07T01:03:50.177Z,2.00
2022-10-07T01:06:18.577Z,1.60
2022-10-07T01:08:48.829Z,2.13
2022-10-07T01:11:29.666Z,1.57
2022-10-07T01:14:08.128Z,2.10
2022-10-07T01:16:45.408Z,1.57
2022-10-07T01:19:36.128Z,1.90
2022-10-07T01:22:17.502Z,2.00
2022-10-07T01:24:55.443Z,2.13
2022-10-07T01:27:26.864Z,1.87
2022-10-07T01:29:59.232Z,2.13
2022-10-07T01:32:32.516Z,2.10
2022-10-07T01:35:02.350Z,1.60
2022-10-07T01:37:35.215Z,1.90
2022-10-07T01:40:07.451Z,1.70
2022-10-07T01:42:37.361Z,2.10
2022-10-07T01:45:08.890Z,1.60
2022-10-07T01:47:36.853Z,2.10
2022-10-07T01:50:11.961Z,2.20
2022-10-07T01:52:58.002Z,1.57
2022-10-07T01:55:46.583Z,2.03
2022-10-07T01:58:31.071Z,1.90
2022-10-07T02:01:09.232Z,1.90
2022-10-07T02:03:57.392Z,1.70
2022-10-07T02:06:38.443Z,1.93
2022-10-07T02:09:16.402Z,1.73
2022-10-07T02:11:49.391Z,2.43
2022-10-07T02:14:23.188Z,2.30
2022-10-07T02:16:55.145Z,1.90
2022-10-07T02:19:26.530Z,2.13
2022-10-07T02:21:57.291Z,2.43
2022-10-07T02:24:29.346Z,2.60
2022-10-07T02:27:00.111Z,2.37
2022-10-07T02:29:34.184Z,2.30
2022-10-07T02:32:07.014Z,2.20
2022-10-07T02:34:37.345Z,2.00
2022-10-07T02:37:12.476Z,2.00
2022-10-07T02:39:40.439Z,2.20
2022-10-07T02:42:20.288Z,2.53
2022-10-07T02:44:52.922Z,2.77
2022-10-07T02:47:28.933Z,2.00
2022-10-07T02:50:01.370Z,2.33
2022-10-07T02:52:32.728Z,1.87
2022-10-07T02:55:04.991Z,2.07
2022-10-07T02:57:37.423Z,1.40
2022-10-07T03:00:11.177Z,2.20
2022-10-07T03:02:45.774Z,2.23
2022-10-07T03:05:19.199Z,2.10
2022-10-07T03:07:47.781Z,2.00
2022-10-07T03:10:16.215Z,2.03
2022-10-07T03:12:44.801Z,1.50
2022-10-07T03:15:14.681Z,1.83
2022-10-07T03:17:43.035Z,2.07
2022-10-07T03:20:11.687Z,1.97
2022-10-07T03:22:39.634Z,1.83
2022-10-07T03:25:08.329Z,2.23
2022-10-07T03:27:36.300Z,2.60
2022-10-07T03:30:04.740Z,1.60
2022-10-07T03:32:34.293Z,1.77
2022-10-07T03:35:02.379Z,1.70
2022-10-07T03:37:31.164Z,1.70
2022-10-07T03:39:59.168Z,2.20
2022-10-07T03:42:27.307Z,1.60
2022-10-07T03:44:55.286Z,2.13
2022-10-07T03:47:23.214Z,2.13
2022-10-07T03:49:53.282Z,1.80
2022-10-07T03:52:21.239Z,2.10
2022-10-07T03:54:49.173Z,2.80
2022-10-07T03:57:34.704Z,2.80
2022-10-07T04:00:03.310Z,3.07
2022-10-07T04:02:31.331Z,3.20
2022-10-07T04:05:00.647Z,2.07
2022-10-07T04:07:28.611Z,2.10
2022-10-07T04:09:56.621Z,2.83
2022-10-07T04:12:24.654Z,2.27
2022-10-07T04:14:52.651Z,1.90
2022-10-07T04:17:21.811Z,2.00
2022-10-07T04:19:49.751Z,1.80
2022-10-07T04:22:19.064Z,1.80
2022-10-07T04:25:07.389Z,2.60
2022-10-07T04:27:51.059Z,2.80
2022-10-07T04:30:19.788Z,1.87
2022-10-07T04:32:49.428Z,2.67
2022-10-07T04:35:17.575Z,2.80
2022-10-07T04:37:48.778Z,2.00
2022-10-07T04:40:17.120Z,2.90
2022-10-07T04:43:02.683Z,3.27
2022-10-07T04:45:30.865Z,2.90
2022-10-07T04:47:58.791Z,2.10
2022-10-07T04:50:26.783Z,2.50
2022-10-07T04:52:56.055Z,2.17
2022-10-07T04:55:23.996Z,1.60
2022-10-07T04:57:51.937Z,2.10
2022-10-07T05:00:19.983Z,2.50
2022-10-07T05:02:50.449Z,2.00
2022-10-07T05:05:18.841Z,1.90
2022-10-07T05:07:51.194Z,2.40
2022-10-07T05:10:21.148Z,2.23
2022-10-07T05:12:53.807Z,1.93
2022-10-07T05:15:24.374Z,1.77
2022-10-07T05:17:55.905Z,2.30
2022-10-07T05:20:23.917Z,1.90
2022-10-07T05:22:51.895Z,2.63
2022-10-07T05:25:21.257Z,1.73
2022-10-07T05:27:53.934Z,2.43
2022-10-07T05:30:22.741Z,1.50
2022-10-07T05:32:51.449Z,1.80
2022-10-07T05:35:20.504Z,2.30
2022-10-07T05:37:51.147Z,1.57
2022-10-07T05:40:19.333Z,1.93
2022-10-07T05:42:49.736Z,2.00
2022-10-07T05:45:17.888Z,2.33
2022-10-07T05:47:47.013Z,1.97
2022-10-07T05:50:15.483Z,2.93
2022-10-07T05:52:45.294Z,1.87
2022-10-07T05:55:13.603Z,3.33
2022-10-07T05:57:41.588Z,2.93
2022-10-07T06:00:12.703Z,2.37
2022-10-07T06:02:40.753Z,3.97
2022-10-07T06:05:10.095Z,2.90
2022-10-07T06:07:38.032Z,3.77
2022-10-07T06:10:24.528Z,3.37
2022-10-07T06:13:10.821Z,2.70
2022-10-07T06:15:40.123Z,2.30
2022-10-07T06:18:08.065Z,3.47
2022-10-07T06:20:36.220Z,2.87
2022-10-07T06:23:05.018Z,2.90
2022-10-07T06:25:32.995Z,2.67
2022-10-07T06:28:01.145Z,2.50
2022-10-07T06:30:29.471Z,2.67
2022-10-07T06:32:58.871Z,2.33
2022-10-07T06:35:26.810Z,2.07
2022-10-07T06:37:54.773Z,3.10
2022-10-07T06:40:22.774Z,2.87
2022-10-07T06:42:50.709Z,3.00
2022-10-07T06:45:18.669Z,2.97
2022-10-07T06:47:46.985Z,2.43
2022-10-07T06:50:16.991Z,2.70
2022-10-07T06:52:44.948Z,2.30
2022-10-07T06:55:12.960Z,2.30
2022-10-07T06:57:56.044Z,2.33
2022-10-07T07:00:24.196Z,3.10
2022-10-07T07:02:52.273Z,2.00
2022-10-07T07:05:21.651Z,2.07
2022-10-07T07:07:49.942Z,1.80
2022-10-07T07:10:18.281Z,2.37
2022-10-07T07:12:46.735Z,2.87
2022-10-07T07:15:15.537Z,2.40
2022-10-07T07:17:43.940Z,2.60
2022-10-07T07:20:13.363Z,1.90
2022-10-07T07:22:43.320Z,3.33
2022-10-07T07:25:11.863Z,2.53
2022-10-07T07:27:39.787Z,2.03
2022-10-07T07:30:08.665Z,4.40
2022-10-07T07:32:36.618Z,2.57
2022-10-07T07:35:05.290Z,3.27
2022-10-07T07:37:33.858Z,2.80
2022-10-07T07:40:03.120Z,2.27
2022-10-07T07:42:31.116Z,2.17
2022-10-07T07:44:59.944Z,2.97
2022-10-07T07:47:28.022Z,2.53
2022-10-07T07:49:55.985Z,2.37
2022-10-07T07:52:25.661Z,2.60
2022-10-07T07:54:57.861Z,2.63
2022-10-07T07:57:27.680Z,3.10
2022-10-07T07:59:55.756Z,2.60
2022-10-07T08:02:24.060Z,2.10
2022-10-07T08:04:52.042Z,2.40
2022-10-07T08:07:20.023Z,2.40
2022-10-07T08:09:47.978Z,2.40
2022-10-07T08:12:15.964Z,2.57
2022-10-07T08:14:45.280Z,3.50
2022-10-07T08:17:13.225Z,3.23
2022-10-07T08:19:41.196Z,2.10
2022-10-07T08:22:09.414Z,3.10
2022-10-07T08:24:37.707Z,2.90
2022-10-07T08:27:05.683Z,3.20
2022-10-07T08:29:33.689Z,3.77
2022-10-07T08:32:03.010Z,3.10
2022-10-07T08:34:30.990Z,2.90
2022-10-07T08:36:58.990Z,2.30
2022-10-07T08:39:29.472Z,2.83
2022-10-07T08:42:08.585Z,2.60
2022-10-07T08:44:41.060Z,2.97
2022-10-07T08:47:18.868Z,2.90
2022-10-07T08:50:00.596Z,3.00
2022-10-07T08:52:44.360Z,3.87
2022-10-07T08:55:19.689Z,3.83
2022-10-07T08:58:04.157Z,5.70
2022-10-07T09:00:40.714Z,3.30
2022-10-07T09:03:24.136Z,2.93
2022-10-07T09:05:55.649Z,3.03
2022-10-07T09:08:30.569Z,2.90
2022-10-07T09:11:15.687Z,2.20
2022-10-07T09:13:48.213Z,2.60
2022-10-07T09:16:20.712Z,3.07
2022-10-07T09:18:53.862Z,2.33
2022-10-07T09:21:25.519Z,1.83
2022-10-07T09:23:58.018Z,2.40
2022-10-07T09:26:27.794Z,2.70
2022-10-07T09:28:55.861Z,3.03
2022-10-07T09:31:25.826Z,2.97
2022-10-07T09:33:55.607Z,2.57
2022-10-07T09:36:24.925Z,2.57
2022-10-07T09:38:53.807Z,3.33
2022-10-07T09:41:31.276Z,3.20
2022-10-07T09:44:06.166Z,3.50
2022-10-07T09:46:46.459Z,2.83
2022-10-07T09:49:34.901Z,3.20
2022-10-07T09:52:05.977Z,3.37
2022-10-07T09:54:36.341Z,3.30
2022-10-07T09:57:06.792Z,3.73
2022-10-07T09:59:36.064Z,3.70
2022-10-07T10:02:19.350Z,3.50
2022-10-07T10:04:52.532Z,3.43
2022-10-07T10:07:23.327Z,3.53
2022-10-07T10:09:52.758Z,3.57
2022-10-07T10:12:22.038Z,3.10
2022-10-07T10:14:52.399Z,2.60
2022-10-07T10:17:27.640Z,3.37
2022-10-07T10:20:17.730Z,3.10
2022-10-07T10:22:46.043Z,3.00
2022-10-07T10:25:44.860Z,3.87
2022-10-07T10:28:20.560Z,2.70
2022-10-07T10:30:54.783Z,3.47
2022-10-07T10:33:30.410Z,3.07
2022-10-07T10:36:07.855Z,2.90
2022-10-07T10:38:45.680Z,3.60
2022-10-07T10:41:23.418Z,2.73
2022-10-07T10:44:05.867Z,3.23
2022-10-07T10:46:47.288Z,3.43
2022-10-07T10:49:26.050Z,3.83
2022-10-07T10:52:13.723Z,3.40
2022-10-07T10:54:49.847Z,3.20
2022-10-07T10:57:27.345Z,2.57
2022-10-07T11:00:08.875Z,3.20
2022-10-07T11:03:03.521Z,3.50
2022-10-07T11:05:34.974Z,2.93
2022-10-07T11:08:12.766Z,2.23
2022-10-07T11:10:45.409Z,3.07
2022-10-07T11:13:30.850Z,3.17
2022-10-07T11:16:05.898Z,3.40
2022-10-07T11:18:41.220Z,2.80
2022-10-07T11:21:16.087Z,3.10
2022-10-07T11:23:53.615Z,3.57
2022-10-07T11:26:31.108Z,2.83
2022-10-07T11:29:13.832Z,2.67
2022-10-07T11:31:45.530Z,2.80
2022-10-07T11:34:18.383Z,2.53
2022-10-07T11:36:54.530Z,3.00
2022-10-07T11:39:24.940Z,2.10
2022-10-07T11:42:00.737Z,3.10
2022-10-07T11:44:34.104Z,2.73
2022-10-07T11:47:05.505Z,3.10
2022-10-07T11:49:37.622Z,2.60
2022-10-07T11:52:08.972Z,2.83
2022-10-07T11:54:45.990Z,3.03
2022-10-07T11:57:25.185Z,2.90
2022-10-07T11:59:59.930Z,2.87
2022-10-07T12:02:40.319Z,3.30
2022-10-07T12:05:29.046Z,3.53
2022-10-07T12:07:59.538Z,2.50
2022-10-07T12:10:31.027Z,2.30
2022-10-07T12:13:15.675Z,2.60
2022-10-07T12:15:44.841Z,2.60
2022-10-07T12:18:39.859Z,3.63
2022-10-07T12:21:09.013Z,2.90
2022-10-07T12:23:46.431Z,2.20
2022-10-07T12:26:52.567Z,2.50
2022-10-07T12:29:34.142Z,2.70
2022-10-07T12:32:02.307Z,3.40
2022-10-07T12:34:37.546Z,2.67
2022-10-07T12:37:37.714Z,2.60
2022-10-07T12:40:17.488Z,2.50
2022-10-07T12:42:54.505Z,3.77
2022-10-07T12:45:25.102Z,2.90
2022-10-07T12:47:57.859Z,2.70
2022-10-07T12:50:27.809Z,2.50
2022-10-07T12:52:58.870Z,2.90
2022-10-07T12:55:32.947Z,2.70
2022-10-07T12:58:18.446Z,3.30
2022-10-07T13:01:10.409Z,2.10
2022-10-07T13:04:13.828Z,3.27
2022-10-07T13:07:25.029Z,3.30
2022-10-07T13:10:28.099Z,3.30
2022-10-07T13:12:59.554Z,2.70
2022-10-07T13:15:33.606Z,3.20
2022-10-07T13:18:11.036Z,3.87
2022-10-07T13:20:54.066Z,2.77
2022-10-07T13:23:27.029Z,3.50
2022-10-07T13:25:58.417Z,2.80
2022-10-07T13:28:31.697Z,2.77
2022-10-07T13:31:15.703Z,3.07
2022-10-07T13:33:44.501Z,3.50
2022-10-07T13:36:21.556Z,3.30
2022-10-07T13:38:50.708Z,2.80
2022-10-07T13:41:26.429Z,2.73
2022-10-07T13:43:57.621Z,3.20
2022-10-07T13:46:29.139Z,5.30
2022-10-07T13:48:58.160Z,5.10
2022-10-07T13:51:30.888Z,3.20
2022-10-07T13:54:00.587Z,3.50
2022-10-07T13:56:31.796Z,3.13
2022-10-07T13:59:00.956Z,2.40
2022-10-07T14:01:32.334Z,3.07
2022-10-07T14:04:25.995Z,3.87
2022-10-07T14:07:10.194Z,3.30
2022-10-07T14:09:45.578Z,3.50
2022-10-07T14:12:17.090Z,4.60
2022-10-07T14:14:47.757Z,3.60
2022-10-07T14:17:28.047Z,3.50
2022-10-07T14:19:59.348Z,3.10
2022-10-07T14:22:32.057Z,3.27
2022-10-07T14:25:03.724Z,2.80
2022-10-07T14:27:48.240Z,2.93
2022-10-07T14:30:55.479Z,3.80
2022-10-07T14:33:48.005Z,3.77
2022-10-07T14:36:18.158Z,2.57
2022-10-07T14:38:47.679Z,3.63
2022-10-07T14:41:17.546Z,3.73
2022-10-07T14:43:47.810Z,2.50
2022-10-07T14:46:21.759Z,3.40
2022-10-07T14:48:52.288Z,2.87
2022-10-07T14:51:22.763Z,3.30
2022-10-07T14:53:54.532Z,3.23
2022-10-07T14:56:27.112Z,2.53
2022-10-07T14:58:56.197Z,2.70
2022-10-07T15:01:24.352Z,2.93
2022-10-07T15:03:53.766Z,2.63
2022-10-07T15:06:22.007Z,3.17
2022-10-07T15:08:50.893Z,2.90
2022-10-07T15:11:21.309Z,3.43
2022-10-07T15:13:50.366Z,3.27
2022-10-07T15:16:20.158Z,3.30
2022-10-07T15:18:52.470Z,2.83
2022-10-07T15:21:23.304Z,3.00
2022-10-07T15:23:52.980Z,2.90
2022-10-07T15:26:24.080Z,3.80
2022-10-07T15:28:54.402Z,3.60
2022-10-07T15:31:23.470Z,2.70
2022-10-07T15:33:51.793Z,2.80
2022-10-07T15:36:19.792Z,3.13
2022-10-07T15:38:49.365Z,3.27
2022-10-07T15:41:31.328Z,2.40
2022-10-07T15:43:59.979Z,2.63
2022-10-07T15:46:28.191Z,3.13
2022-10-07T15:48:57.042Z,3.17
2022-10-07T15:51:25.790Z,2.80
2022-10-07T15:53:55.638Z,2.90
2022-10-07T15:56:25.399Z,2.60
2022-10-07T15:58:53.430Z,3.63
2022-10-07T16:01:21.860Z,2.83
2022-10-07T16:03:50.834Z,3.37
2022-10-07T16:06:21.526Z,3.10
2022-10-07T16:08:49.615Z,3.17
2022-10-07T16:11:19.293Z,3.10
2022-10-07T16:13:48.515Z,3.83
2022-10-07T16:16:18.562Z,5.90
2022-10-07T16:18:48.808Z,3.83
2022-10-07T16:21:19.053Z,4.13
2022-10-07T16:23:47.738Z,2.93
2022-10-07T16:26:19.442Z,3.27
2022-10-07T16:29:06.629Z,3.13
2022-10-07T16:31:37.483Z,2.87
2022-10-07T16:34:05.636Z,3.30
2022-10-07T16:36:35.568Z,3.93
2022-10-07T16:39:05.170Z,4.53
2022-10-07T16:41:34.468Z,5.10
2022-10-07T16:44:03.214Z,4.00
2022-10-07T16:46:33.103Z,4.13
2022-10-07T16:49:01.567Z,4.13
2022-10-07T16:51:33.244Z,4.23
2022-10-07T16:54:02.883Z,3.43
2022-10-07T16:56:32.938Z,5.10
2022-10-07T16:59:04.418Z,8.07
2022-10-07T17:01:33.134Z,3.60
2022-10-07T17:04:02.208Z,3.60
2022-10-07T17:06:32.381Z,3.90
2022-10-07T17:09:03.068Z,4.10
2022-10-07T17:11:32.619Z,4.10
2022-10-07T17:14:04.886Z,4.40
2022-10-07T17:16:34.858Z,4.30
2022-10-07T17:19:02.963Z,4.00
2022-10-07T17:21:30.901Z,4.40
2022-10-07T17:23:59.143Z,3.80
2022-10-07T17:26:28.064Z,3.70
2022-10-07T17:29:00.979Z,4.23
2022-10-07T17:31:31.328Z,3.70
2022-10-07T17:34:00.130Z,12.83
2022-10-07T17:36:28.928Z,3.57
2022-10-07T17:38:57.594Z,3.60
2022-10-07T17:41:27.331Z,4.43
2022-10-07T17:43:58.215Z,4.10
2022-10-07T17:46:28.123Z,3.47
2022-10-07T17:48:59.133Z,3.60
2022-10-07T17:51:29.278Z,3.27
2022-10-07T17:53:59.531Z,3.97
2022-10-07T17:56:28.317Z,5.10
2022-10-07T17:58:57.128Z,4.13
2022-10-07T18:01:27.483Z,3.47
2022-10-07T18:03:58.426Z,3.77
2022-10-07T18:06:28.073Z,4.30
2022-10-07T18:08:56.151Z,3.60
2022-10-07T18:11:44.127Z,7.40
2022-10-07T18:14:29.843Z,9.07
2022-10-07T18:16:57.809Z,4.13
2022-10-07T18:19:29.351Z,3.33
2022-10-07T18:21:57.388Z,3.37
2022-10-07T18:24:27.418Z,4.33
2022-10-07T18:26:58.477Z,2.90
2022-10-07T18:29:26.410Z,3.73
2022-10-07T18:31:54.438Z,4.23
2022-10-07T18:34:22.497Z,3.60
2022-10-07T18:36:56.259Z,3.57
2022-10-07T18:39:24.945Z,3.20
2022-10-07T18:42:20.613Z,3.80
2022-10-07T18:44:50.214Z,4.33
2022-10-07T18:47:18.163Z,3.47
2022-10-07T18:49:46.182Z,3.97
2022-10-07T18:52:15.530Z,2.60
2022-10-07T18:54:43.443Z,4.70
2022-10-07T18:57:11.595Z,4.00
2022-10-07T18:59:39.511Z,3.80
2022-10-07T19:02:11.348Z,3.40
2022-10-07T19:04:39.559Z,4.80
2022-10-07T19:07:07.500Z,3.63
2022-10-07T19:09:37.087Z,2.77
2022-10-07T19:12:25.437Z,3.33
2022-10-07T19:14:54.548Z,3.60
2022-10-07T19:17:24.026Z,4.50
2022-10-07T19:19:52.399Z,3.20
2022-10-07T19:22:20.528Z,2.80
2022-10-07T19:25:07.604Z,3.70
2022-10-07T19:27:35.676Z,3.67
2022-10-07T19:30:05.403Z,3.97
2022-10-07T19:32:34.733Z,3.20
2022-10-07T19:35:02.789Z,3.70
2022-10-07T19:37:30.775Z,10.30
2022-10-07T19:40:00.224Z,6.93
2022-10-07T19:42:28.615Z,9.50
2022-10-07T19:44:56.585Z,3.90
2022-10-07T19:47:24.498Z,4.00
2022-10-07T19:49:52.716Z,3.93
2022-10-07T19:52:21.026Z,4.33
2022-10-07T19:54:49.949Z,4.73
2022-10-07T19:57:19.308Z,4.33
2022-10-07T19:59:47.281Z,3.77
2022-10-07T20:02:15.444Z,3.40
2022-10-07T20:04:44.593Z,3.60
2022-10-07T20:07:12.611Z,4.40
2022-10-07T20:09:40.609Z,3.30
2022-10-07T20:12:08.588Z,3.97
2022-10-07T20:14:37.884Z,3.70
2022-10-07T20:17:05.908Z,3.70
2022-10-07T20:19:33.917Z,3.90
2022-10-07T20:22:03.239Z,4.43
2022-10-07T20:24:31.186Z,4.13
2022-10-07T20:26:59.147Z,5.40
2022-10-07T20:29:27.147Z,3.67
2022-10-07T20:31:56.495Z,4.73
2022-10-07T20:34:26.290Z,3.77
2022-10-07T20:36:54.888Z,2.80
2022-10-07T20:39:40.734Z,4.30
2022-10-07T20:42:25.533Z,3.67
2022-10-07T20:44:54.236Z,3.97
2022-10-07T20:47:25.865Z,3.37
2022-10-07T20:49:55.551Z,4.30
2022-10-07T20:52:25.102Z,5.07
2022-10-07T20:54:53.756Z,4.17
2022-10-07T20:57:24.798Z,4.73
2022-10-07T20:59:53.079Z,4.90
2022-10-07T21:02:23.916Z,3.87
2022-10-07T21:04:54.707Z,4.30
2022-10-07T21:07:22.747Z,4.40
2022-10-07T21:09:50.717Z,5.30
2022-10-07T21:12:19.163Z,3.50
2022-10-07T21:14:48.561Z,4.20
2022-10-07T21:17:17.562Z,4.57
2022-10-07T21:19:46.953Z,3.33
2022-10-07T21:22:15.276Z,4.00
2022-10-07T21:24:43.268Z,3.50
2022-10-07T21:27:11.598Z,3.30
2022-10-07T21:29:41.243Z,4.07
2022-10-07T21:32:10.384Z,3.80
2022-10-07T21:34:38.711Z,4.80
2022-10-07T21:37:08.218Z,4.77
2022-10-07T21:39:36.210Z,7.73
2022-10-07T21:42:04.644Z,6.30
2022-10-07T21:44:33.466Z,9.70
2022-10-07T21:47:02.028Z,3.80
2022-10-07T21:49:29.982Z,4.23
2022-10-07T21:51:57.992Z,3.90
2022-10-07T21:54:27.555Z,4.37
2022-10-07T21:56:55.587Z,4.50
2022-10-07T21:59:23.802Z,4.40
2022-10-07T22:01:51.848Z,4.47
2022-10-07T22:04:20.492Z,4.20
2022-10-07T22:07:05.706Z,3.90
2022-10-07T22:09:35.780Z,4.40
2022-10-07T22:12:03.916Z,4.57
2022-10-07T22:14:31.953Z,4.00
2022-10-07T22:16:59.981Z,4.20
2022-10-07T22:19:27.986Z,4.10
2022-10-07T22:21:55.963Z,4.80
2022-10-07T22:24:24.662Z,3.60
2022-10-07T22:26:54.158Z,4.73
2022-10-07T22:29:23.116Z,2.97
2022-10-07T22:31:51.148Z,3.90
2022-10-07T22:34:36.807Z,4.03
2022-10-07T22:37:05.118Z,5.27
2022-10-07T22:39:33.100Z,4.80
2022-10-07T22:42:03.702Z,5.20
2022-10-07T22:44:31.762Z,4.50
2022-10-07T22:47:00.364Z,4.03
2022-10-07T22:49:30.239Z,3.77
2022-10-07T22:51:59.566Z,3.90
2022-10-07T22:54:28.578Z,5.20
2022-10-07T22:56:57.102Z,3.57
2022-10-07T22:59:26.454Z,4.00
2022-10-07T23:01:54.447Z,4.10
2022-10-07T23:04:22.500Z,4.10
2022-10-07T23:06:50.832Z,4.20
2022-10-07T23:09:18.812Z,4.40
2022-10-07T23:11:46.896Z,4.63
2022-10-07T23:14:14.906Z,4.20
2022-10-07T23:16:44.887Z,3.60
2022-10-07T23:19:13.003Z,3.77
2022-10-07T23:21:41.002Z,4.90
2022-10-07T23:24:09.999Z,4.67
2022-10-07T23:26:38.721Z,4.43
2022-10-07T23:29:08.478Z,3.83
2022-10-07T23:31:36.542Z,4.00
2022-10-07T23:34:06.840Z,4.73
2022-10-07T23:36:35.135Z,4.90
2022-10-07T23:39:03.408Z,3.67
2022-10-07T23:41:32.554Z,4.80
2022-10-07T23:44:02.920Z,4.67
2022-10-07T23:46:33.897Z,4.20
2022-10-07T23:49:02.635Z,3.90
2022-10-07T23:51:32.575Z,4.47
2022-10-07T23:54:02.064Z,4.97
2022-10-07T23:56:30.516Z,4.00
2022-10-07T23:58:58.703Z,3.70
